Eastborough, Kansas
Current Conditions -  °F | °C
As of 9:58 PM on Monday 22 Dec 2014 (Local Time) from KIAB Reporting Station
Clear Clear  
Wind Chill:   Ceiling: Unl
Heat Index:   Visibility: 10mi
Dew Point:   Wind: 6mph
Humidity: 68%   Direction: 280°W
Pressure: 29.64"   Gusts: NA
Location:  37.6676°N, 97.2266°W
Report Text: KIAB 230358Z AUTO 28005KT 10SM CLR 06/00 A2964 RMK AO2 CIG 100 RWY19 SLP043 T00580003
Loading
Personal Weather Stations






























Interactive Weather Map New forecast layout! Learn more

10-Day Weather Forecast

Advertisements
Track Severe Weather on mobile